Time;durP1;ratioP1;P1;durP2;ratioP2;P2;SDS_P1;SDS_P2;PMS_P1;PMS_P2;Temp;Humidity;BMP_temperature;BMP_pressure;BME280_temperature;BME280_humidity;BME280_pressure;Samples;Min_cycle;Max_cycle;Signal;HPM_P1;HPM_P2
2023/05/22 00:01:26;;;;;;;;;;;;;;;11.83;71.02;96126.63;5116125;28;19984;-67
2023/05/22 00:03:54;;;;;;;;;;;;;;;11.85;72.09;96130.88;5115681;28;19930;-62
2023/05/22 00:06:22;;;;;;;;;;;;;;;11.81;72.18;96131.97;5115790;28;19976;-62
2023/05/22 00:08:49;;;;;;;;;;;;;;;11.84;73.26;96125.72;5115652;28;19963;-63
2023/05/22 00:11:16;;;;;;;;;;;;;;;11.82;72.66;96128.41;5115648;28;19931;-60
2023/05/22 00:13:43;;;;;;;;;;;;;;;11.79;72.82;96125.06;5115526;27;19927;-63
2023/05/22 00:16:10;;;;;;;;;;;;;;;11.77;72.65;96127.75;5115787;28;19924;-64
2023/05/22 00:18:37;;;;;;;;;;;;;;;11.75;72.42;96129.63;5115634;27;19924;-66
2023/05/22 00:21:05;;;;;;;;;;;;;;;11.68;72.19;96129.06;5115440;28;19927;-64
2023/05/22 00:23:32;;;;;;;;;;;;;;;11.62;71.93;96124.97;5115505;28;20010;-65
2023/05/22 00:25:58;;;;;;;;;;;;;;;11.61;72.20;96125.91;5115277;28;19978;-64
2023/05/22 00:28:25;;;;;;;;;;;;;;;11.53;72.15;96122.81;5115026;28;19923;-62
2023/05/22 00:30:52;;;;;;;;;;;;;;;11.47;72.47;96118.72;5115451;28;19935;-62
2023/05/22 00:33:19;;;;;;;;;;;;;;;11.41;72.36;96116.38;5115083;28;20365;-62
2023/05/22 00:35:46;;;;;;;;;;;;;;;11.40;71.97;96122.56;5115073;27;20357;-60
2023/05/22 00:38:27;;;;;;;;;;;;;;;11.40;72.40;96119.09;5115036;28;19924;-61
2023/05/22 00:40:54;;;;;;;;;;;;;;;11.44;72.76;96120.66;5115049;28;19928;-63
2023/05/22 00:43:21;;;;;;;;;;;;;;;11.47;72.27;96121.34;5115105;28;19924;-66
2023/05/22 00:45:47;;;;;;;;;;;;;;;11.45;71.75;96117.09;5114797;28;20262;-65
2023/05/22 00:48:14;;;;;;;;;;;;;;;11.55;71.23;96128.84;5114864;28;19928;-65
2023/05/22 00:50:41;;;;;;;;;;;;;;;11.62;71.29;96118.91;5114774;28;20440;-63
2023/05/22 00:53:08;;;;;;;;;;;;;;;11.67;70.16;96113.44;5114713;28;20060;-64
2023/05/22 00:55:37;;;;;;;;;;;;;;;11.75;70.58;96119.97;5114773;28;19924;-64
2023/05/22 00:58:06;;;;;;;;;;;;;;;11.87;69.34;96112.44;5114706;28;19930;-62
2023/05/22 01:00:35;;;;;;;;;;;;;;;12.05;69.12;96110.69;5114729;28;19977;-63
2023/05/22 01:03:02;;;;;;;;;;;;;;;12.12;68.59;96116.47;5114653;28;20015;-64
2023/05/22 01:05:29;;;;;;;;;;;;;;;12.32;67.26;96117.22;5114490;28;19946;-65
2023/05/22 01:07:56;;;;;;;;;;;;;;;12.44;68.10;96116.59;5114648;28;19928;-65
2023/05/22 01:10:24;;;;;;;;;;;;;;;12.46;67.79;96125.22;5114959;28;19924;-64
2023/05/22 01:12:59;;;;;;;;;;;;;;;12.44;68.16;96121.00;5114480;28;19924;-68
2023/05/22 01:15:31;;;;;;;;;;;;;;;12.43;68.07;96120.13;5114305;28;19954;-63
2023/05/22 01:18:03;;;;;;;;;;;;;;;12.42;68.90;96118.44;5114514;28;19928;-66
2023/05/22 01:20:31;;;;;;;;;;;;;;;12.41;68.76;96118.53;5114478;28;19966;-62
2023/05/22 01:23:10;;;;;;;;;;;;;;;12.51;68.25;96114.50;5114244;28;19981;-66
2023/05/22 01:25:53;;;;;;;;;;;;;;;12.59;67.23;96122.81;5114298;28;19946;-66
2023/05/22 01:28:32;;;;;;;;;;;;;;;12.64;67.53;96107.66;5114003;28;20270;-61
2023/05/22 01:31:02;;;;;;;;;;;;;;;12.68;68.10;96111.00;5114100;28;20002;-66
2023/05/22 01:33:33;;;;;;;;;;;;;;;12.59;68.29;96106.22;5114158;28;19928;-62
2023/05/22 01:36:01;;;;;;;;;;;;;;;12.59;68.69;96103.59;5114064;28;19996;-65
2023/05/22 01:38:29;;;;;;;;;;;;;;;12.58;68.77;96107.16;5114106;28;19931;-65
2023/05/22 01:40:56;;;;;;;;;;;;;;;12.47;69.41;96108.56;5114017;28;19928;-65
2023/05/22 01:43:23;;;;;;;;;;;;;;;12.38;69.42;96095.94;5114170;28;19924;-68
2023/05/22 01:45:50;;;;;;;;;;;;;;;12.38;69.62;96101.19;5113903;28;19967;-61
2023/05/22 01:48:18;;;;;;;;;;;;;;;12.35;69.26;96104.81;5113816;28;20009;-67
2023/05/22 01:50:45;;;;;;;;;;;;;;;12.37;69.11;96096.84;5114194;28;20030;-63
2023/05/22 01:53:15;;;;;;;;;;;;;;;12.28;69.58;96099.97;5114054;28;19923;-66
2023/05/22 01:55:46;;;;;;;;;;;;;;;12.22;70.44;96104.59;5113939;28;19928;-67
2023/05/22 01:58:17;;;;;;;;;;;;;;;12.22;70.52;96095.91;5113961;28;20022;-63
2023/05/22 02:00:45;;;;;;;;;;;;;;;12.21;70.58;96094.19;5113894;28;19930;-63
2023/05/22 02:03:19;;;;;;;;;;;;;;;12.16;70.89;96089.16;5113975;28;19928;-65
2023/05/22 02:05:51;;;;;;;;;;;;;;;12.06;70.83;96085.28;5113670;28;20032;-65
2023/05/22 02:08:18;;;;;;;;;;;;;;;12.01;71.65;96089.00;5113921;28;19963;-62
2023/05/22 02:10:45;;;;;;;;;;;;;;;11.99;71.79;96087.41;5113978;28;20442;-66
2023/05/22 02:13:12;;;;;;;;;;;;;;;11.92;71.82;96083.41;5113918;28;19923;-67
2023/05/22 02:15:39;;;;;;;;;;;;;;;11.95;71.99;96085.88;5113916;28;19977;-63
2023/05/22 02:18:10;;;;;;;;;;;;;;;11.95;72.19;96078.00;5113624;28;19931;-63
2023/05/22 02:20:36;;;;;;;;;;;;;;;12.00;71.81;96081.22;5114080;28;19928;-67
2023/05/22 02:23:05;;;;;;;;;;;;;;;11.99;71.71;96075.16;5113660;28;20598;-65
2023/05/22 02:25:31;;;;;;;;;;;;;;;11.98;71.95;96077.84;5113609;28;20016;-65
2023/05/22 02:27:58;;;;;;;;;;;;;;;12.07;71.85;96077.38;5113661;28;19930;-63
2023/05/22 02:30:25;;;;;;;;;;;;;;;12.11;71.11;96086.81;5113766;28;19928;-64
2023/05/22 02:32:53;;;;;;;;;;;;;;;12.28;69.06;96079.81;5113645;28;20327;-64
2023/05/22 02:35:20;;;;;;;;;;;;;;;12.40;69.79;96078.31;5113531;28;19923;-62
2023/05/22 02:37:46;;;;;;;;;;;;;;;12.50;69.25;96081.31;5113614;28;20026;-65
2023/05/22 02:40:15;;;;;;;;;;;;;;;12.61;69.10;96078.09;5113504;28;20010;-65
2023/05/22 02:42:42;;;;;;;;;;;;;;;12.63;69.85;96089.38;5113545;28;20323;-61
2023/05/22 02:45:09;;;;;;;;;;;;;;;12.61;69.47;96086.84;5113437;28;19924;-60
2023/05/22 02:47:36;;;;;;;;;;;;;;;12.63;69.81;96086.75;5113665;28;19928;-66
2023/05/22 02:50:03;;;;;;;;;;;;;;;12.61;70.22;96091.22;5113339;28;19931;-60
2023/05/22 02:52:30;;;;;;;;;;;;;;;12.68;69.44;96091.75;5113578;28;19973;-65
2023/05/22 02:54:57;;;;;;;;;;;;;;;12.77;68.02;96086.84;5113228;28;19949;-67
2023/05/22 02:57:25;;;;;;;;;;;;;;;12.86;68.44;96087.31;5113380;28;19931;-64
2023/05/22 02:59:52;;;;;;;;;;;;;;;12.93;68.33;96080.78;5113434;28;19927;-63
2023/05/22 03:02:19;;;;;;;;;;;;;;;12.98;68.48;96093.66;5116917;28;19931;-62
2023/05/22 03:04:46;;;;;;;;;;;;;;;13.06;68.62;96098.50;5117001;28;19924;-65
2023/05/22 03:07:13;;;;;;;;;;;;;;;13.08;68.02;96093.97;5116883;28;19932;-63
2023/05/22 03:09:40;;;;;;;;;;;;;;;13.08;69.58;96086.97;5116807;28;20019;-62
2023/05/22 03:12:07;;;;;;;;;;;;;;;13.13;70.46;96086.72;5116716;28;19978;-61
2023/05/22 03:14:35;;;;;;;;;;;;;;;13.09;70.65;96086.03;5116935;28;19931;-67
2023/05/22 03:17:02;;;;;;;;;;;;;;;13.09;71.08;96086.03;5116582;27;19924;-62
2023/05/22 03:19:29;;;;;;;;;;;;;;;13.11;71.72;96086.81;5116660;28;19924;-63
2023/05/22 03:21:56;;;;;;;;;;;;;;;13.11;71.12;96078.94;5116609;28;19934;-65
2023/05/22 03:24:23;;;;;;;;;;;;;;;13.14;70.53;96089.25;5116509;28;19966;-63
2023/05/22 03:26:50;;;;;;;;;;;;;;;13.14;69.70;96088.41;5116393;28;19924;-63
2023/05/22 03:29:16;;;;;;;;;;;;;;;13.23;68.94;96090.53;5116317;28;19930;-63
2023/05/22 03:31:45;;;;;;;;;;;;;;;13.49;67.05;96088.22;5116484;28;19924;-65
2023/05/22 03:34:12;;;;;;;;;;;;;;;13.59;66.76;96087.69;5116417;28;19928;-65
2023/05/22 03:36:40;;;;;;;;;;;;;;;13.71;65.92;96087.00;5116380;28;19959;-66
2023/05/22 03:39:07;;;;;;;;;;;;;;;13.84;66.33;96087.13;5116254;28;20444;-66
2023/05/22 03:41:33;;;;;;;;;;;;;;;13.93;66.40;96087.53;5116213;27;20010;-62
2023/05/22 03:44:01;;;;;;;;;;;;;;;14.07;66.62;96082.28;5116218;28;20315;-64
2023/05/22 03:46:28;;;;;;;;;;;;;;;14.26;65.47;96081.19;5116216;28;19924;-64
2023/05/22 03:48:57;;;;;;;;;;;;;;;14.48;64.82;96085.16;5116035;27;20406;-61
2023/05/22 03:51:24;;;;;;;;;;;;;;;14.64;64.70;96088.53;5116216;28;19930;-64
2023/05/22 03:53:50;;;;;;;;;;;;;;;14.81;62.64;96091.09;5116100;28;20370;-64
2023/05/22 03:56:17;;;;;;;;;;;;;;;14.77;63.10;96086.00;5116135;27;19923;-63
2023/05/22 03:58:44;;;;;;;;;;;;;;;14.79;63.34;96091.19;5116040;28;19934;-69
2023/05/22 04:01:12;;;;;;;;;;;;;;;14.84;63.09;96097.00;5115684;28;19993;-67
2023/05/22 04:03:39;;;;;;;;;;;;;;;14.88;63.08;96100.31;5115730;28;19924;-66
2023/05/22 04:06:07;;;;;;;;;;;;;;;14.90;63.58;96106.31;5115847;28;19928;-64
2023/05/22 04:08:35;;;;;;;;;;;;;;;14.84;63.51;96101.44;5115716;28;20343;-66
2023/05/22 04:11:04;;;;;;;;;;;;;;;14.92;64.37;96109.69;5115294;28;20010;-63
2023/05/22 04:13:31;;;;;;;;;;;;;;;15.07;64.15;96109.66;5115597;27;19970;-65
2023/05/22 04:16:00;;;;;;;;;;;;;;;15.20;63.04;96113.22;5115354;28;19924;-64
2023/05/22 04:18:27;;;;;;;;;;;;;;;15.31;63.01;96112.53;5115432;28;19924;-65
2023/05/22 04:20:54;;;;;;;;;;;;;;;15.42;62.70;96114.50;5115475;28;19966;-64
2023/05/22 04:23:23;;;;;;;;;;;;;;;15.53;61.54;96124.31;5115681;27;20022;-63
2023/05/22 04:25:50;;;;;;;;;;;;;;;15.63;61.83;96119.31;5115218;28;19977;-66
2023/05/22 04:28:21;;;;;;;;;;;;;;;15.74;61.66;96121.25;5114982;27;20348;-66
2023/05/22 04:30:47;;;;;;;;;;;;;;;15.76;62.05;96120.19;5115211;28;19928;-66
2023/05/22 04:33:15;;;;;;;;;;;;;;;15.76;62.23;96124.63;5115109;27;19932;-68
2023/05/22 04:35:43;;;;;;;;;;;;;;;15.83;64.22;96125.06;5115098;28;19923;-66
2023/05/22 04:38:10;;;;;;;;;;;;;;;15.92;64.34;96132.34;5115149;28;19930;-65
2023/05/22 04:40:38;;;;;;;;;;;;;;;16.29;62.09;96135.19;5114982;27;19934;-65
2023/05/22 04:43:06;;;;;;;;;;;;;;;16.82;61.95;96136.03;5114878;28;19931;-63
2023/05/22 04:45:34;;;;;;;;;;;;;;;17.42;58.93;96144.22;5114775;28;19962;-66
2023/05/22 04:48:01;;;;;;;;;;;;;;;17.78;56.79;96141.63;5114915;28;20014;-62
2023/05/22 04:50:31;;;;;;;;;;;;;;;17.82;55.85;96139.59;5114820;28;20377;-67
2023/05/22 04:52:58;;;;;;;;;;;;;;;17.82;56.23;96136.94;5114981;28;19930;-61
2023/05/22 04:55:25;;;;;;;;;;;;;;;17.70;55.91;96137.88;5114783;28;20289;-66
2023/05/22 04:57:55;;;;;;;;;;;;;;;17.65;57.10;96139.06;5114709;28;19990;-65
2023/05/22 05:00:25;;;;;;;;;;;;;;;17.57;57.31;96135.28;5114683;28;20431;-66
2023/05/22 05:02:52;;;;;;;;;;;;;;;17.48;58.21;96139.41;5114620;28;19924;-64
2023/05/22 05:05:18;;;;;;;;;;;;;;;17.35;58.67;96144.75;5114573;28;19927;-60
2023/05/22 05:07:46;;;;;;;;;;;;;;;17.33;59.05;96144.88;5114508;28;19923;-63
2023/05/22 05:10:13;;;;;;;;;;;;;;;17.53;58.69;96145.22;5114563;27;20285;-68
2023/05/22 05:12:40;;;;;;;;;;;;;;;17.55;59.35;96143.31;5114367;28;19924;-62
2023/05/22 05:15:09;;;;;;;;;;;;;;;17.63;57.64;96140.09;5114320;28;19972;-65
2023/05/22 05:17:36;;;;;;;;;;;;;;;17.69;58.06;96144.94;5114439;28;20019;-66
2023/05/22 05:20:06;;;;;;;;;;;;;;;18.17;59.05;96138.81;5114276;27;19924;-63
2023/05/22 05:22:32;;;;;;;;;;;;;;;18.87;56.41;96142.44;5113907;28;19932;-63
2023/05/22 05:25:00;;;;;;;;;;;;;;;19.43;54.41;96144.22;5114112;28;19930;-63
2023/05/22 05:27:26;;;;;;;;;;;;;;;19.70;51.38;96142.94;5114159;28;20269;-65
2023/05/22 05:29:53;;;;;;;;;;;;;;;19.57;50.85;96134.31;5114128;28;20403;-69
2023/05/22 05:32:21;;;;;;;;;;;;;;;19.32;52.70;96146.88;5114180;28;20030;-66
2023/05/22 05:34:48;;;;;;;;;;;;;;;19.02;53.48;96141.19;5114093;28;20443;-65
2023/05/22 05:37:15;;;;;;;;;;;;;;;18.97;53.51;96146.03;5114100;28;20397;-67
2023/05/22 05:39:41;;;;;;;;;;;;;;;19.12;54.21;96143.16;5114096;28;19953;-64
2023/05/22 05:42:08;;;;;;;;;;;;;;;19.00;54.40;96147.59;5114020;28;20381;-64
2023/05/22 05:44:35;;;;;;;;;;;;;;;18.93;54.05;96149.88;5114127;28;19924;-67
2023/05/22 05:47:02;;;;;;;;;;;;;;;18.86;53.98;96148.66;5113920;28;20381;-65
2023/05/22 05:49:30;;;;;;;;;;;;;;;19.02;54.21;96140.38;5113941;28;19931;-67
2023/05/22 05:51:57;;;;;;;;;;;;;;;19.21;53.71;96144.25;5113882;28;20442;-66
2023/05/22 05:54:25;;;;;;;;;;;;;;;19.52;51.47;96145.28;5113986;28;19993;-67
2023/05/22 05:56:52;;;;;;;;;;;;;;;19.69;50.05;96141.25;5113918;28;20350;-63
2023/05/22 05:59:18;;;;;;;;;;;;;;;19.68;51.13;96142.22;5113952;28;19977;-61
2023/05/22 06:01:46;;;;;;;;;;;;;;;19.63;50.94;96148.88;5113681;28;19978;-63
2023/05/22 06:04:12;;;;;;;;;;;;;;;19.65;51.09;96157.53;5113973;28;19977;-64
2023/05/22 06:06:41;;;;;;;;;;;;;;;19.86;51.38;96156.78;5113719;28;20043;-63
2023/05/22 06:09:08;;;;;;;;;;;;;;;20.11;55.26;96154.75;5113819;28;19924;-64
2023/05/22 06:11:36;;;;;;;;;;;;;;;20.38;53.38;96151.59;5113803;28;19930;-64
2023/05/22 06:14:02;;;;;;;;;;;;;;;20.54;51.71;96152.97;5114452;28;19924;-63
2023/05/22 06:16:29;;;;;;;;;;;;;;;20.71;51.26;96157.69;5113725;28;20388;-64
2023/05/22 06:18:58;;;;;;;;;;;;;;;20.96;51.01;96160.91;5113794;28;20018;-66
2023/05/22 06:21:24;;;;;;;;;;;;;;;21.33;49.85;96164.00;5113636;28;19931;-64
2023/05/22 06:23:53;;;;;;;;;;;;;;;21.78;48.16;96164.53;5113668;28;19924;-65
2023/05/22 06:26:20;;;;;;;;;;;;;;;21.68;46.18;96165.38;5113492;28;19969;-64
2023/05/22 06:28:47;;;;;;;;;;;;;;;21.58;45.84;96167.13;5113393;28;20022;-66
2023/05/22 06:31:14;;;;;;;;;;;;;;;21.45;47.21;96170.06;5113581;28;20410;-64
2023/05/22 06:33:41;;;;;;;;;;;;;;;21.17;49.27;96173.34;5113660;28;20456;-68
2023/05/22 06:36:10;;;;;;;;;;;;;;;20.87;48.83;96171.47;5117495;28;19977;-63
2023/05/22 06:38:38;;;;;;;;;;;;;;;20.80;49.58;96168.50;5117506;28;19927;-67
2023/05/22 06:41:06;;;;;;;;;;;;;;;20.85;50.53;96168.94;5117602;28;19975;-67
2023/05/22 06:43:33;;;;;;;;;;;;;;;20.86;50.73;96175.94;5117362;27;19923;-65
2023/05/22 06:46:00;;;;;;;;;;;;;;;20.84;50.31;96176.06;5117099;28;19924;-64
2023/05/22 06:48:27;;;;;;;;;;;;;;;20.71;50.66;96175.47;5117254;27;19924;-65
2023/05/22 06:50:54;;;;;;;;;;;;;;;20.57;50.22;96173.97;5117103;28;19986;-67
2023/05/22 06:53:22;;;;;;;;;;;;;;;20.52;49.89;96170.84;5117042;28;19924;-65
2023/05/22 06:55:49;;;;;;;;;;;;;;;20.43;50.46;96172.47;5117108;28;19924;-65
2023/05/22 06:58:18;;;;;;;;;;;;;;;20.50;50.48;96180.78;5117080;28;19930;-66
2023/05/22 07:00:44;;;;;;;;;;;;;;;20.60;51.74;96170.19;5117271;28;20006;-64
2023/05/22 07:03:11;;;;;;;;;;;;;;;20.56;50.72;96177.59;5117059;28;19923;-66
2023/05/22 07:05:38;;;;;;;;;;;;;;;20.54;50.70;96175.06;5116948;28;19927;-62
2023/05/22 07:08:05;;;;;;;;;;;;;;;20.60;50.36;96179.03;5116711;28;19985;-66
2023/05/22 07:10:32;;;;;;;;;;;;;;;20.66;50.76;96178.50;5116790;28;19977;-69
2023/05/22 07:12:59;;;;;;;;;;;;;;;20.86;53.29;96175.09;5116625;28;19971;-64
2023/05/22 07:15:27;;;;;;;;;;;;;;;21.02;52.67;96182.63;5116720;27;19924;-63
2023/05/22 07:17:54;;;;;;;;;;;;;;;21.13;50.60;96185.19;5116678;28;20289;-61
2023/05/22 07:20:21;;;;;;;;;;;;;;;21.30;49.13;96186.38;5116817;28;19924;-64
2023/05/22 07:22:47;;;;;;;;;;;;;;;21.44;48.36;96181.69;5116566;28;19924;-63
2023/05/22 07:25:16;;;;;;;;;;;;;;;21.43;48.44;96177.34;5116557;28;19932;-64
2023/05/22 07:27:42;;;;;;;;;;;;;;;21.49;51.84;96181.28;5116532;28;20340;-66
2023/05/22 07:30:10;;;;;;;;;;;;;;;21.58;49.00;96189.28;5116462;28;19998;-65
2023/05/22 07:32:38;;;;;;;;;;;;;;;21.91;47.31;96182.94;5116613;28;19928;-66
2023/05/22 07:35:06;;;;;;;;;;;;;;;22.44;48.53;96184.34;5116322;28;20285;-62
2023/05/22 07:37:32;;;;;;;;;;;;;;;22.71;45.07;96173.94;5116262;28;20010;-66
2023/05/22 07:39:59;;;;;;;;;;;;;;;23.33;45.47;96172.63;5116274;28;19977;-65
2023/05/22 07:42:26;;;;;;;;;;;;;;;23.67;46.07;96177.38;5116242;27;19923;-62
2023/05/22 07:44:53;;;;;;;;;;;;;;;23.78;44.07;96175.50;5116134;28;19924;-63
2023/05/22 07:47:20;;;;;;;;;;;;;;;23.70;45.20;96173.56;5115453;28;20024;-63
2023/05/22 07:49:48;;;;;;;;;;;;;;;23.68;43.73;96175.53;5116211;28;19931;-63
2023/05/22 07:52:15;;;;;;;;;;;;;;;23.60;42.79;96173.66;5116051;27;19931;-62
2023/05/22 07:54:42;;;;;;;;;;;;;;;24.05;43.48;96179.13;5115895;28;19931;-63
2023/05/22 07:57:11;;;;;;;;;;;;;;;24.21;45.28;96171.28;5115948;28;20409;-62
2023/05/22 07:59:37;;;;;;;;;;;;;;;24.14;45.97;96169.38;5115867;28;19923;-67
2023/05/22 08:02:04;;;;;;;;;;;;;;;23.93;44.82;96168.63;5115861;27;19928;-64
2023/05/22 08:04:31;;;;;;;;;;;;;;;24.05;44.77;96163.09;5116053;28;19924;-65
2023/05/22 08:07:00;;;;;;;;;;;;;;;24.34;45.95;96159.34;5115630;28;19930;-65
2023/05/22 08:09:27;;;;;;;;;;;;;;;24.41;43.42;96171.09;5115660;28;19946;-60
2023/05/22 08:11:53;;;;;;;;;;;;;;;24.44;43.17;96169.97;5115655;28;20301;-64
2023/05/22 08:14:21;;;;;;;;;;;;;;;24.20;42.57;96168.78;5115691;28;20006;-63
2023/05/22 08:16:48;;;;;;;;;;;;;;;23.81;42.86;96168.00;5115611;28;19928;-65
2023/05/22 08:19:15;;;;;;;;;;;;;;;23.90;44.87;96160.91;5115507;28;20002;-63
2023/05/22 08:21:41;;;;;;;;;;;;;;;24.04;40.88;96166.72;5115697;28;19932;-69
2023/05/22 08:24:10;;;;;;;;;;;;;;;24.11;43.02;96165.97;5115464;27;19924;-64
2023/05/22 08:26:37;;;;;;;;;;;;;;;24.11;45.42;96155.28;5115389;28;20010;-66
2023/05/22 08:29:04;;;;;;;;;;;;;;;24.00;44.96;96152.00;5115035;28;19923;-67
2023/05/22 08:31:33;;;;;;;;;;;;;;;23.85;44.56;96165.91;5115228;28;19971;-65
2023/05/22 08:34:01;;;;;;;;;;;;;;;23.92;44.02;96161.63;5115195;28;20021;-65
2023/05/22 08:36:28;;;;;;;;;;;;;;;24.16;44.75;96160.22;5115362;28;19924;-60
2023/05/22 08:38:55;;;;;;;;;;;;;;;24.42;45.16;96167.44;5115049;28;19924;-65
2023/05/22 08:41:23;;;;;;;;;;;;;;;24.81;44.14;96162.69;5115121;28;19928;-64
2023/05/22 08:43:50;;;;;;;;;;;;;;;25.02;42.56;96165.03;5115133;28;19923;-65
2023/05/22 08:46:18;;;;;;;;;;;;;;;24.98;40.10;96160.97;5115031;28;20327;-64
2023/05/22 08:48:46;;;;;;;;;;;;;;;24.95;39.16;96156.78;5114837;28;19976;-65
2023/05/22 08:51:13;;;;;;;;;;;;;;;24.94;39.48;96149.78;5114931;28;20451;-64
2023/05/22 08:53:41;;;;;;;;;;;;;;;25.04;42.23;96157.66;5114802;28;19957;-68
2023/05/22 08:56:08;;;;;;;;;;;;;;;25.13;40.82;96157.72;5114787;28;19983;-63
2023/05/22 08:58:37;;;;;;;;;;;;;;;25.13;41.75;96153.19;5113997;28;19924;-64
2023/05/22 09:01:05;;;;;;;;;;;;;;;25.30;39.30;96154.13;5114659;28;20281;-61
2023/05/22 09:03:33;;;;;;;;;;;;;;;25.09;39.16;96152.69;5114605;28;19969;-63
2023/05/22 09:06:00;;;;;;;;;;;;;;;24.78;39.62;96146.97;5114605;28;19923;-65
2023/05/22 09:08:27;;;;;;;;;;;;;;;24.69;37.66;96146.06;5114523;28;19924;-62
2023/05/22 09:10:55;;;;;;;;;;;;;;;24.85;39.76;96143.50;5114513;28;20019;-67
2023/05/22 09:13:25;;;;;;;;;;;;;;;25.02;39.33;96153.50;5114802;28;19990;-67
2023/05/22 09:15:53;;;;;;;;;;;;;;;24.98;38.92;96140.44;5114413;28;19930;-62
2023/05/22 09:18:21;;;;;;;;;;;;;;;24.71;38.05;96147.59;5114475;28;19923;-62
2023/05/22 09:20:47;;;;;;;;;;;;;;;24.33;38.84;96150.50;5114326;28;20024;-63
2023/05/22 09:23:16;;;;;;;;;;;;;;;23.72;41.10;96147.59;5114475;28;19965;-63
2023/05/22 09:25:43;;;;;;;;;;;;;;;23.46;42.62;96143.81;5114228;28;19924;-62
2023/05/22 09:28:11;;;;;;;;;;;;;;;22.89;43.39;96146.53;5113878;28;19928;-63
2023/05/22 09:30:37;;;;;;;;;;;;;;;22.39;42.06;96138.63;5114459;28;19949;-61
2023/05/22 09:33:07;;;;;;;;;;;;;;;22.43;45.02;96140.00;5114194;28;19938;-60
2023/05/22 09:35:35;;;;;;;;;;;;;;;22.70;43.12;96145.63;5114127;28;19927;-66
2023/05/22 09:38:02;;;;;;;;;;;;;;;22.59;43.62;96136.81;5114046;28;19924;-64
2023/05/22 09:40:29;;;;;;;;;;;;;;;22.57;43.28;96135.22;5114081;28;19977;-63
2023/05/22 09:42:55;;;;;;;;;;;;;;;22.52;43.24;96140.16;5114106;28;19923;-67
2023/05/22 09:45:23;;;;;;;;;;;;;;;22.32;43.66;96141.03;5114280;28;19973;-63
2023/05/22 09:47:49;;;;;;;;;;;;;;;22.05;45.51;96139.91;5113907;28;19931;-64
2023/05/22 09:50:17;;;;;;;;;;;;;;;21.74;47.95;96160.47;5113947;28;20400;-65
2023/05/22 09:52:45;;;;;;;;;;;;;;;21.07;49.55;96175.13;5114015;28;20037;-65
2023/05/22 09:55:13;;;;;;;;;;;;;;;20.82;51.31;96180.69;5113982;28;20036;-64
2023/05/22 09:57:42;;;;;;;;;;;;;;;20.24;54.39;96175.81;5113893;28;19924;-65
2023/05/22 10:00:13;;;;;;;;;;;;;;;19.64;53.31;96172.63;5113819;28;19931;-64
2023/05/22 10:02:42;;;;;;;;;;;;;;;19.39;58.65;96156.00;5113838;28;19927;-65
2023/05/22 10:05:09;;;;;;;;;;;;;;;19.45;60.37;96142.25;5113867;28;19953;-64
2023/05/22 10:07:41;;;;;;;;;;;;;;;19.59;59.28;96153.56;5113697;28;20366;-64
2023/05/22 10:10:09;;;;;;;;;;;;;;;19.80;61.71;96155.44;5116117;28;19927;-66
2023/05/22 10:12:42;;;;;;;;;;;;;;;19.94;62.50;96155.16;5118003;28;20373;-64
2023/05/22 10:15:10;;;;;;;;;;;;;;;20.10;63.59;96163.72;5117835;28;20286;-63
2023/05/22 10:17:38;;;;;;;;;;;;;;;20.11;59.62;96152.97;5117816;28;19977;-60
2023/05/22 10:20:06;;;;;;;;;;;;;;;20.17;57.63;96155.09;5118087;28;19927;-65
2023/05/22 10:22:34;;;;;;;;;;;;;;;20.29;56.33;96147.09;5117814;28;19927;-62
2023/05/22 10:25:03;;;;;;;;;;;;;;;20.52;57.06;96147.78;5117812;28;19977;-63
2023/05/22 10:27:30;;;;;;;;;;;;;;;21.01;62.11;96154.38;5117681;28;20373;-65
2023/05/22 10:30:02;;;;;;;;;;;;;;;21.47;58.37;96152.16;5117516;28;20380;-62
2023/05/22 10:32:33;;;;;;;;;;;;;;;21.68;51.16;96149.41;5117526;28;20003;-65
2023/05/22 10:35:06;;;;;;;;;;;;;;;21.79;51.23;96147.63;5117634;28;20339;-61
2023/05/22 10:37:42;;;;;;;;;;;;;;;21.98;53.80;96133.47;5117591;28;19970;-66
2023/05/22 10:40:12;;;;;;;;;;;;;;;22.42;56.38;96134.81;5117475;28;19977;-62
2023/05/22 10:42:38;;;;;;;;;;;;;;;22.50;55.26;96126.97;5117347;27;20328;-63
2023/05/22 10:45:07;;;;;;;;;;;;;;;22.58;50.49;96135.09;5117342;28;19928;-62
2023/05/22 10:47:34;;;;;;;;;;;;;;;22.88;48.61;96132.38;5117531;28;19967;-66
2023/05/22 10:50:05;;;;;;;;;;;;;;;23.33;49.12;96137.94;5117285;28;19924;-62
2023/05/22 10:52:31;;;;;;;;;;;;;;;23.45;50.85;96130.59;5117152;28;19989;-62
2023/05/22 10:55:00;;;;;;;;;;;;;;;23.33;51.09;96124.59;5117116;28;20377;-65
2023/05/22 10:57:32;;;;;;;;;;;;;;;23.20;50.59;96123.13;5117075;28;20376;-68
2023/05/22 11:00:09;;;;;;;;;;;;;;;22.83;52.56;96118.63;5117296;28;20022;-67
2023/05/22 11:02:40;;;;;;;;;;;;;;;22.57;55.64;96109.47;5116996;28;20012;-65
2023/05/22 11:05:28;;;;;;;;;;;;;;;22.40;56.60;96105.69;5117024;27;19927;-62
2023/05/22 11:08:09;;;;;;;;;;;;;;;22.32;57.46;96102.88;5111676;28;19923;-63
2023/05/22 11:10:50;;;;;;;;;;;;;;;22.29;58.06;96119.16;5116897;28;20276;-65
2023/05/22 11:13:19;;;;;;;;;;;;;;;21.80;56.15;96112.88;5117000;28;19924;-63
2023/05/22 11:15:46;;;;;;;;;;;;;;;21.50;61.07;96117.28;5117014;28;20330;-63
2023/05/22 11:18:13;;;;;;;;;;;;;;;21.26;62.15;96122.97;5116776;28;19957;-61
2023/05/22 11:20:40;;;;;;;;;;;;;;;20.95;63.88;96119.34;5116257;28;19949;-64
2023/05/22 11:23:07;;;;;;;;;;;;;;;20.63;62.82;96106.19;5116575;28;19924;-64
2023/05/22 11:25:35;;;;;;;;;;;;;;;20.49;66.39;96083.44;5116643;28;20347;-62
2023/05/22 11:28:02;;;;;;;;;;;;;;;20.37;68.03;96091.50;5116441;28;20288;-65
2023/05/22 11:30:30;;;;;;;;;;;;;;;20.29;69.11;96086.00;5116472;28;20381;-65
2023/05/22 11:32:58;;;;;;;;;;;;;;;20.37;70.41;96085.34;5116386;28;19976;-68
2023/05/22 11:35:25;;;;;;;;;;;;;;;20.31;70.16;96084.91;5116456;28;19977;-61
2023/05/22 11:37:52;;;;;;;;;;;;;;;20.19;68.32;96107.16;5116538;28;19953;-67
2023/05/22 11:40:20;;;;;;;;;;;;;;;19.64;70.64;96147.91;5116273;28;19924;-66
2023/05/22 11:42:47;;;;;;;;;;;;;;;19.00;72.11;96182.03;5116204;27;19924;-63
2023/05/22 11:57:25;;;;;;;30.13;8.27;;;;;;;16.00;73.06;96179.34;5082285;27;1491605;-62
2023/05/22 11:59:53;;;;;;;15.88;6.90;;;;;;;15.79;75.57;96178.00;5110827;28;20550;-66
2023/05/22 12:02:20;;;;;;;10.27;5.00;;;;;;;15.57;74.73;96185.59;5110842;28;20473;-63
2023/05/22 12:04:47;;;;;;;11.32;4.55;;;;;;;15.47;76.53;96177.44;5110591;28;20052;-67
2023/05/22 12:07:15;;;;;;;14.88;6.22;;;;;;;15.43;78.54;96179.41;5110662;28;20062;-69
2023/05/22 12:09:43;;;;;;;10.82;5.82;;;;;;;15.44;79.54;96167.94;5110535;28;20138;-63
2023/05/22 12:12:11;;;;;;;17.58;7.47;;;;;;;15.53;81.68;96169.13;5110616;28;20055;-62
2023/05/22 12:14:45;;;;;;;10.70;5.25;;;;;;;15.57;80.79;96161.88;5110552;28;20047;-63
2023/05/22 12:17:13;;;;;;;14.50;5.95;;;;;;;15.62;80.46;96165.91;5110418;28;20050;-61
2023/05/22 12:19:42;;;;;;;12.73;5.90;;;;;;;15.67;82.05;96149.78;5110465;28;20047;-66
2023/05/22 12:22:10;;;;;;;10.73;6.03;;;;;;;15.76;82.57;96148.34;5110411;28;20139;-67
2023/05/22 12:24:41;;;;;;;10.20;5.88;;;;;;;15.82;83.47;96145.31;5110385;28;20058;-63
2023/05/22 12:27:08;;;;;;;;;;;;;;;15.92;82.00;96135.00;5110775;28;20439;-65
2023/05/22 12:29:36;;;;;;;10.70;5.00;;;;;;;15.94;81.89;96122.56;5110178;28;20395;-68
2023/05/22 12:32:07;;;;;;;11.10;4.72;;;;;;;15.98;81.03;96129.34;5110152;28;20040;-61
2023/05/22 12:34:36;;;;;;;20.25;4.93;;;;;;;15.97;81.16;96116.25;5110184;28;20043;-62
2023/05/22 12:37:03;;;;;;;12.55;5.00;;;;;;;15.99;81.86;96117.00;5110121;28;20054;-65
2023/05/22 12:39:30;;;;;;;9.55;4.35;;;;;;;15.94;82.11;96113.78;5110129;28;20044;-62
2023/05/22 12:41:58;;;;;;;8.93;4.88;;;;;;;15.91;81.65;96112.22;5110060;28;20397;-66
2023/05/22 12:44:26;;;;;;;7.97;4.60;;;;;;;15.89;81.75;96108.81;5110037;28;20055;-66
2023/05/22 12:46:54;;;;;;;4.57;3.88;;;;;;;15.86;80.84;96106.41;5109824;28;20481;-62
2023/05/22 12:49:23;;;;;;;9.80;4.70;;;;;;;15.96;82.24;96102.25;5109828;28;20040;-61
2023/05/22 12:51:50;;;;;;;6.93;4.32;;;;;;;16.08;82.99;96105.84;5109871;28;20435;-67
2023/05/22 12:54:17;;;;;;;6.80;4.63;;;;;;;16.27;82.41;96104.59;5109811;28;20044;-62
2023/05/22 12:56:45;;;;;;;7.30;4.20;;;;;;;16.44;82.20;96108.72;5105169;28;20130;-64